sensor_id;sensor_type;location;lat;lon;timestamp;pressure;altitude;pressure_sealevel;temperature;humidity
46710;BME280;32442;51.514;-0.178;2022-07-29T00:02:26;101603.81;;;22.02;46.42
46710;BME280;32442;51.514;-0.178;2022-07-29T00:04:53;101597.41;;;21.97;46.34
46710;BME280;32442;51.514;-0.178;2022-07-29T00:07:20;101596.19;;;22.03;46.04
46710;BME280;32442;51.514;-0.178;2022-07-29T00:09:46;101594.69;;;22.10;45.93
46710;BME280;32442;51.514;-0.178;2022-07-29T00:12:21;101605.44;;;22.03;46.51
46710;BME280;32442;51.514;-0.178;2022-07-29T00:14:55;101595.66;;;22.01;46.43
46710;BME280;32442;51.514;-0.178;2022-07-29T00:17:22;101592.56;;;22.02;46.48
46710;BME280;32442;51.514;-0.178;2022-07-29T00:19:49;101590.66;;;21.98;46.40
46710;BME280;32442;51.514;-0.178;2022-07-29T00:22:16;101599.38;;;21.96;46.68
46710;BME280;32442;51.514;-0.178;2022-07-29T00:24:43;101603.06;;;21.92;47.00
46710;BME280;32442;51.514;-0.178;2022-07-29T00:27:09;101596.00;;;21.94;46.67
46710;BME280;32442;51.514;-0.178;2022-07-29T00:29:36;101589.25;;;21.95;46.55
46710;BME280;32442;51.514;-0.178;2022-07-29T00:32:03;101585.91;;;21.93;46.61
46710;BME280;32442;51.514;-0.178;2022-07-29T00:34:30;101586.75;;;21.94;47.07
46710;BME280;32442;51.514;-0.178;2022-07-29T00:37:15;101584.47;;;21.96;46.82
46710;BME280;32442;51.514;-0.178;2022-07-29T00:39:42;101583.03;;;21.98;47.10
46710;BME280;32442;51.514;-0.178;2022-07-29T00:42:09;101585.31;;;21.96;46.81
46710;BME280;32442;51.514;-0.178;2022-07-29T00:44:39;101577.72;;;21.97;47.21
46710;BME280;32442;51.514;-0.178;2022-07-29T00:47:07;101574.66;;;21.93;47.48
46710;BME280;32442;51.514;-0.178;2022-07-29T00:49:34;101562.72;;;22.01;47.11
46710;BME280;32442;51.514;-0.178;2022-07-29T00:52:02;101566.22;;;21.93;47.15
46710;BME280;32442;51.514;-0.178;2022-07-29T00:54:29;101571.06;;;21.88;47.35
46710;BME280;32442;51.514;-0.178;2022-07-29T00:56:59;101567.09;;;21.89;47.73
46710;BME280;32442;51.514;-0.178;2022-07-29T00:59:26;101567.75;;;21.81;47.64
46710;BME280;32442;51.514;-0.178;2022-07-29T01:02:00;101569.91;;;21.89;47.62
46710;BME280;32442;51.514;-0.178;2022-07-29T01:04:27;101567.69;;;21.86;47.99
46710;BME280;32442;51.514;-0.178;2022-07-29T01:06:56;101565.19;;;21.84;47.95
46710;BME280;32442;51.514;-0.178;2022-07-29T01:09:22;101567.16;;;21.84;47.57
46710;BME280;32442;51.514;-0.178;2022-07-29T01:12:10;101564.94;;;21.81;48.00
46710;BME280;32442;51.514;-0.178;2022-07-29T01:14:36;101555.97;;;21.79;48.33
46710;BME280;32442;51.514;-0.178;2022-07-29T01:17:09;101555.16;;;21.78;48.13
46710;BME280;32442;51.514;-0.178;2022-07-29T01:22:16;101566.63;;;21.82;48.41
46710;BME280;32442;51.514;-0.178;2022-07-29T01:25:03;101562.75;;;21.78;48.06
46710;BME280;32442;51.514;-0.178;2022-07-29T01:29:58;101574.28;;;21.76;48.55
46710;BME280;32442;51.514;-0.178;2022-07-29T01:32:26;101563.13;;;21.71;48.93
46710;BME280;32442;51.514;-0.178;2022-07-29T01:40:08;101575.19;;;21.71;48.55
46710;BME280;32442;51.514;-0.178;2022-07-29T01:42:48;101572.94;;;21.73;48.80
46710;BME280;32442;51.514;-0.178;2022-07-29T01:50:34;101561.69;;;21.73;48.71
46710;BME280;32442;51.514;-0.178;2022-07-29T01:53:02;101565.03;;;21.76;48.63
46710;BME280;32442;51.514;-0.178;2022-07-29T01:55:38;101561.97;;;21.72;49.05
46710;BME280;32442;51.514;-0.178;2022-07-29T01:58:06;101561.44;;;21.70;48.93
46710;BME280;32442;51.514;-0.178;2022-07-29T02:00:34;101560.59;;;21.69;49.21
46710;BME280;32442;51.514;-0.178;2022-07-29T02:03:02;101568.50;;;21.67;48.99
46710;BME280;32442;51.514;-0.178;2022-07-29T02:05:30;101566.00;;;21.66;49.42
46710;BME280;32442;51.514;-0.178;2022-07-29T02:07:57;101558.94;;;21.68;49.38
46710;BME280;32442;51.514;-0.178;2022-07-29T02:10:26;101555.88;;;21.65;49.35
46710;BME280;32442;51.514;-0.178;2022-07-29T02:12:54;101560.59;;;21.69;49.23
46710;BME280;32442;51.514;-0.178;2022-07-29T02:15:23;101558.03;;;21.73;48.95
46710;BME280;32442;51.514;-0.178;2022-07-29T02:17:51;101553.38;;;21.63;49.32
46710;BME280;32442;51.514;-0.178;2022-07-29T02:20:20;101556.72;;;21.65;49.70
46710;BME280;32442;51.514;-0.178;2022-07-29T02:22:48;101562.94;;;21.62;49.73
46710;BME280;32442;51.514;-0.178;2022-07-29T02:25:16;101558.03;;;21.73;49.48
46710;BME280;32442;51.514;-0.178;2022-07-29T02:27:44;101560.13;;;21.62;49.69
46710;BME280;32442;51.514;-0.178;2022-07-29T02:30:11;101562.94;;;21.62;49.61
46710;BME280;32442;51.514;-0.178;2022-07-29T02:32:39;101563.94;;;21.71;49.21
46710;BME280;32442;51.514;-0.178;2022-07-29T02:35:06;101564.94;;;21.62;49.41
46710;BME280;32442;51.514;-0.178;2022-07-29T02:37:35;101561.56;;;21.60;49.97
46710;BME280;32442;51.514;-0.178;2022-07-29T02:40:02;101565.50;;;21.59;49.83
46710;BME280;32442;51.514;-0.178;2022-07-29T02:42:30;101568.88;;;21.61;49.76
46710;BME280;32442;51.514;-0.178;2022-07-29T02:44:57;101563.31;;;21.56;50.04
46710;BME280;32442;51.514;-0.178;2022-07-29T02:47:27;101564.94;;;21.62;49.71
46710;BME280;32442;51.514;-0.178;2022-07-29T02:55:25;101561.94;;;21.53;49.91
46710;BME280;32442;51.514;-0.178;2022-07-29T03:00:38;101566.41;;;21.54;50.32
46710;BME280;32442;51.514;-0.178;2022-07-29T03:03:07;101565.06;;;21.52;50.41
46710;BME280;32442;51.514;-0.178;2022-07-29T03:05:35;101565.34;;;21.50;50.35
46710;BME280;32442;51.514;-0.178;2022-07-29T03:08:04;101566.97;;;21.56;50.02
46710;BME280;32442;51.514;-0.178;2022-07-29T03:10:32;101564.38;;;21.60;49.80
46710;BME280;32442;51.514;-0.178;2022-07-29T03:12:59;101562.75;;;21.54;50.28
46710;BME280;32442;51.514;-0.178;2022-07-29T03:15:26;101568.72;;;21.52;50.48
46710;BME280;32442;51.514;-0.178;2022-07-29T03:17:53;101563.66;;;21.49;50.10
46710;BME280;32442;51.514;-0.178;2022-07-29T03:20:22;101571.25;;;21.49;50.12
46710;BME280;32442;51.514;-0.178;2022-07-29T03:22:49;101566.81;;;21.48;50.53
46710;BME280;32442;51.514;-0.178;2022-07-29T03:25:17;101578.63;;;21.45;50.27
46710;BME280;32442;51.514;-0.178;2022-07-29T03:27:44;101581.44;;;21.45;50.36
46710;BME280;32442;51.514;-0.178;2022-07-29T03:30:12;101584.78;;;21.47;50.39
46710;BME280;32442;51.514;-0.178;2022-07-29T03:32:47;101582.88;;;21.42;50.21
46710;BME280;32442;51.514;-0.178;2022-07-29T03:35:14;101576.72;;;21.40;50.38
46710;BME280;32442;51.514;-0.178;2022-07-29T03:37:43;101585.16;;;21.40;50.49
46710;BME280;32442;51.514;-0.178;2022-07-29T03:40:11;101574.50;;;21.37;50.45
46710;BME280;32442;51.514;-0.178;2022-07-29T03:42:40;101571.13;;;21.35;50.63
46710;BME280;32442;51.514;-0.178;2022-07-29T03:45:10;101576.47;;;21.37;50.34
46710;BME280;32442;51.514;-0.178;2022-07-29T03:47:39;101565.53;;;21.35;50.55
46710;BME280;32442;51.514;-0.178;2022-07-29T03:50:16;101573.44;;;21.33;50.43
46710;BME280;32442;51.514;-0.178;2022-07-29T03:52:45;101571.13;;;21.35;50.51
46710;BME280;32442;51.514;-0.178;2022-07-29T03:55:13;101571.75;;;21.32;50.90
46710;BME280;32442;51.514;-0.178;2022-07-29T03:57:40;101573.72;;;21.32;50.83
46710;BME280;32442;51.514;-0.178;2022-07-29T04:00:08;101567.25;;;21.31;50.89
46710;BME280;32442;51.514;-0.178;2022-07-29T04:02:35;101571.75;;;21.32;50.42
46710;BME280;32442;51.514;-0.178;2022-07-29T04:05:02;101567.56;;;21.29;50.53
46710;BME280;32442;51.514;-0.178;2022-07-29T04:07:29;101583.00;;;21.32;50.42
46710;BME280;32442;51.514;-0.178;2022-07-29T04:09:56;101575.69;;;21.31;50.54
46710;BME280;32442;51.514;-0.178;2022-07-29T04:12:24;101577.97;;;21.29;50.65
46710;BME280;32442;51.514;-0.178;2022-07-29T04:14:51;101576.84;;;21.30;51.03
46710;BME280;32442;51.514;-0.178;2022-07-29T04:17:18;101574.63;;;21.27;50.97
46710;BME280;32442;51.514;-0.178;2022-07-29T04:19:45;101581.44;;;21.21;50.84
46710;BME280;32442;51.514;-0.178;2022-07-29T04:22:11;101574.63;;;21.27;50.97
46710;BME280;32442;51.514;-0.178;2022-07-29T04:24:38;101578.88;;;21.24;51.19
46710;BME280;32442;51.514;-0.178;2022-07-29T04:27:09;101581.69;;;21.24;51.10
46710;BME280;32442;51.514;-0.178;2022-07-29T04:29:36;101585.00;;;21.26;50.55
46710;BME280;32442;51.514;-0.178;2022-07-29T04:32:22;101579.16;;;21.23;51.19
46710;BME280;32442;51.514;-0.178;2022-07-29T04:34:49;101585.63;;;21.23;51.17
46710;BME280;32442;51.514;-0.178;2022-07-29T04:37:16;101584.25;;;21.21;51.10
46710;BME280;32442;51.514;-0.178;2022-07-29T04:39:42;101583.09;;;21.22;51.11
46710;BME280;32442;51.514;-0.178;2022-07-29T04:42:09;101583.41;;;21.20;51.08
46710;BME280;32442;51.514;-0.178;2022-07-29T04:44:36;101576.13;;;21.19;50.97
46710;BME280;32442;51.514;-0.178;2022-07-29T04:47:08;101587.66;;;21.18;51.34
46710;BME280;32442;51.514;-0.178;2022-07-29T04:49:37;101580.34;;;21.17;51.44
46710;BME280;32442;51.514;-0.178;2022-07-29T04:52:04;101583.69;;;21.19;51.19
46710;BME280;32442;51.514;-0.178;2022-07-29T04:54:31;101585.38;;;21.20;51.43
46710;BME280;32442;51.514;-0.178;2022-07-29T04:56:58;101591.84;;;21.20;51.10
46710;BME280;32442;51.514;-0.178;2022-07-29T04:59:25;101582.63;;;21.15;51.58
46710;BME280;32442;51.514;-0.178;2022-07-29T05:01:53;101585.69;;;21.18;51.27
46710;BME280;32442;51.514;-0.178;2022-07-29T05:04:20;101584.31;;;21.16;51.35
46710;BME280;32442;51.514;-0.178;2022-07-29T05:06:47;101579.25;;;21.13;51.73
46710;BME280;32442;51.514;-0.178;2022-07-29T05:09:14;101587.97;;;21.11;51.59
46710;BME280;32442;51.514;-0.178;2022-07-29T05:11:40;101579.25;;;21.13;51.35
46710;BME280;32442;51.514;-0.178;2022-07-29T05:14:07;101573.94;;;21.11;51.64
46710;BME280;32442;51.514;-0.178;2022-07-29T05:16:34;101576.75;;;21.11;51.40
46710;BME280;32442;51.514;-0.178;2022-07-29T05:19:02;101568.88;;;21.13;51.53
46710;BME280;32442;51.514;-0.178;2022-07-29T05:21:29;101573.63;;;21.13;51.42
46710;BME280;32442;51.514;-0.178;2022-07-29T05:23:56;101575.59;;;21.12;51.68
46710;BME280;32442;51.514;-0.178;2022-07-29T05:26:22;101575.06;;;21.10;51.88
46710;BME280;32442;51.514;-0.178;2022-07-29T05:28:49;101588.53;;;21.13;51.81
46710;BME280;32442;51.514;-0.178;2022-07-29T05:31:16;101593.59;;;21.11;52.03
46710;BME280;32442;51.514;-0.178;2022-07-29T05:33:43;101590.22;;;21.09;51.80
46710;BME280;32442;51.514;-0.178;2022-07-29T05:36:12;101586.59;;;21.09;51.84
46710;BME280;32442;51.514;-0.178;2022-07-29T05:38:39;101595.25;;;21.12;51.81
46710;BME280;32442;51.514;-0.178;2022-07-29T05:41:06;101588.25;;;21.15;52.11
46710;BME280;32442;51.514;-0.178;2022-07-29T05:43:33;101587.97;;;21.11;51.79
46710;BME280;32442;51.514;-0.178;2022-07-29T05:46:00;101588.53;;;21.13;51.76
46710;BME280;32442;51.514;-0.178;2022-07-29T05:48:27;101591.06;;;21.15;52.03
46710;BME280;32442;51.514;-0.178;2022-07-29T05:50:54;101597.25;;;21.12;52.19
46710;BME280;32442;51.514;-0.178;2022-07-29T05:53:21;101592.19;;;21.14;52.30
46710;BME280;32442;51.514;-0.178;2022-07-29T05:55:48;101591.34;;;21.13;52.11
46710;BME280;32442;51.514;-0.178;2022-07-29T05:58:15;101598.06;;;21.12;52.51
46710;BME280;32442;51.514;-0.178;2022-07-29T06:00:42;101592.44;;;21.12;52.44
46710;BME280;32442;51.514;-0.178;2022-07-29T06:03:09;101597.81;;;21.09;52.80
46710;BME280;32442;51.514;-0.178;2022-07-29T06:05:35;101602.59;;;21.13;52.61
46710;BME280;32442;51.514;-0.178;2022-07-29T06:08:02;101602.00;;;21.16;52.48
46710;BME280;32442;51.514;-0.178;2022-07-29T06:10:32;101605.09;;;21.15;52.71
46710;BME280;32442;51.514;-0.178;2022-07-29T06:12:59;101607.91;;;21.15;52.75
46710;BME280;32442;51.514;-0.178;2022-07-29T06:15:26;101610.19;;;21.13;53.16
46710;BME280;32442;51.514;-0.178;2022-07-29T06:17:52;101613.81;;;21.13;52.94
46710;BME280;32442;51.514;-0.178;2022-07-29T06:20:26;101616.34;;;21.15;52.66
46710;BME280;32442;51.514;-0.178;2022-07-29T06:22:56;101627.81;;;21.18;52.80
46710;BME280;32442;51.514;-0.178;2022-07-29T06:25:23;101627.59;;;21.15;53.41
46710;BME280;32442;51.514;-0.178;2022-07-29T06:27:50;101626.84;;;21.33;52.96
46710;BME280;32442;51.514;-0.178;2022-07-29T06:30:17;101623.59;;;21.21;53.36
46710;BME280;32442;51.514;-0.178;2022-07-29T06:32:44;101627.22;;;21.21;53.42
46710;BME280;32442;51.514;-0.178;2022-07-29T06:35:11;101625.25;;;21.22;53.53
46710;BME280;32442;51.514;-0.178;2022-07-29T06:37:58;101626.41;;;21.21;53.26
46710;BME280;32442;51.514;-0.178;2022-07-29T06:40:25;101624.13;;;21.23;53.35
46710;BME280;32442;51.514;-0.178;2022-07-29T06:43:10;101629.16;;;21.26;53.46
46710;BME280;32442;51.514;-0.178;2022-07-29T06:45:37;101628.38;;;21.20;54.05
46710;BME280;32442;51.514;-0.178;2022-07-29T06:48:08;101620.19;;;21.24;53.95
46710;BME280;32442;51.514;-0.178;2022-07-29T06:50:35;101617.13;;;21.20;53.90
46710;BME280;32442;51.514;-0.178;2022-07-29T06:53:02;101620.72;;;21.26;53.89
46710;BME280;32442;51.514;-0.178;2022-07-29T06:55:29;101620.19;;;21.24;54.11
46710;BME280;32442;51.514;-0.178;2022-07-29T06:57:56;101625.88;;;21.19;54.36
46710;BME280;32442;51.514;-0.178;2022-07-29T07:00:23;101621.59;;;21.21;54.30
46710;BME280;32442;51.514;-0.178;2022-07-29T07:02:50;101626.66;;;21.24;54.50
46710;BME280;32442;51.514;-0.178;2022-07-29T07:05:17;101623.84;;;21.24;54.60
46710;BME280;32442;51.514;-0.178;2022-07-29T07:07:44;101624.38;;;21.26;54.47
46710;BME280;32442;51.514;-0.178;2022-07-29T07:10:11;101619.59;;;21.27;54.23
46710;BME280;32442;51.514;-0.178;2022-07-29T07:12:37;101624.38;;;21.26;54.72
46710;BME280;32442;51.514;-0.178;2022-07-29T07:15:04;101619.28;;;21.28;54.52
46710;BME280;32442;51.514;-0.178;2022-07-29T07:17:32;101622.13;;;21.28;54.45
46710;BME280;32442;51.514;-0.178;2022-07-29T07:19:59;101628.03;;;21.27;54.87
46710;BME280;32442;51.514;-0.178;2022-07-29T07:22:26;101628.53;;;21.34;54.56
46710;BME280;32442;51.514;-0.178;2022-07-29T07:24:53;101638.38;;;21.32;54.82
46710;BME280;32442;51.514;-0.178;2022-07-29T07:27:19;101643.28;;;21.45;54.46
46710;BME280;32442;51.514;-0.178;2022-07-29T07:29:46;101636.81;;;21.44;54.49
46710;BME280;32442;51.514;-0.178;2022-07-29T07:32:13;101644.19;;;21.40;54.91
46710;BME280;32442;51.514;-0.178;2022-07-29T07:34:42;101647.97;;;21.54;54.63
46710;BME280;32442;51.514;-0.178;2022-07-29T07:37:10;101644.97;;;21.46;54.95
46710;BME280;32442;51.514;-0.178;2022-07-29T07:39:36;101647.53;;;21.42;55.01
46710;BME280;32442;51.514;-0.178;2022-07-29T07:42:03;101648.44;;;21.38;55.01
46710;BME280;32442;51.514;-0.178;2022-07-29T07:44:30;101649.41;;;21.52;54.46
46710;BME280;32442;51.514;-0.178;2022-07-29T07:46:57;101647.59;;;21.37;55.08
46710;BME280;32442;51.514;-0.178;2022-07-29T07:49:34;101650.31;;;21.47;54.86
46710;BME280;32442;51.514;-0.178;2022-07-29T07:52:00;101648.97;;;21.40;54.80
46710;BME280;32442;51.514;-0.178;2022-07-29T07:54:27;101647.53;;;21.42;54.97
46710;BME280;32442;51.514;-0.178;2022-07-29T07:56:54;101651.19;;;21.43;54.73
46710;BME280;32442;51.514;-0.178;2022-07-29T07:59:21;101652.31;;;21.42;54.61
46710;BME280;32442;51.514;-0.178;2022-07-29T08:01:48;101643.91;;;21.42;54.45
46710;BME280;32442;51.514;-0.178;2022-07-29T08:04:21;101647.00;;;21.40;54.82
46710;BME280;32442;51.514;-0.178;2022-07-29T08:06:54;101641.38;;;21.40;54.33
46710;BME280;32442;51.514;-0.178;2022-07-29T08:09:21;101646.75;;;21.37;54.08
46710;BME280;32442;51.514;-0.178;2022-07-29T08:11:56;101643.06;;;21.41;53.58
46710;BME280;32442;51.514;-0.178;2022-07-29T08:14:24;101643.91;;;21.42;53.21
46710;BME280;32442;51.514;-0.178;2022-07-29T08:16:51;101648.06;;;21.44;53.05
46710;BME280;32442;51.514;-0.178;2022-07-29T08:19:17;101652.88;;;21.44;52.68
46710;BME280;32442;51.514;-0.178;2022-07-29T08:21:44;101646.69;;;21.42;52.45
46710;BME280;32442;51.514;-0.178;2022-07-29T08:24:11;101655.09;;;21.47;51.97
46710;BME280;32442;51.514;-0.178;2022-07-29T08:26:56;101656.22;;;21.46;51.76
46710;BME280;32442;51.514;-0.178;2022-07-29T08:29:24;101653.13;;;21.47;51.81
46710;BME280;32442;51.514;-0.178;2022-07-29T08:31:51;101653.63;;;21.49;50.96
46710;BME280;32442;51.514;-0.178;2022-07-29T08:34:18;101646.28;;;21.53;50.78
46710;BME280;32442;51.514;-0.178;2022-07-29T08:36:53;101657.28;;;21.50;50.97
46710;BME280;32442;51.514;-0.178;2022-07-29T08:39:20;101648.63;;;21.46;50.87
46710;BME280;32442;51.514;-0.178;2022-07-29T08:41:46;101653.63;;;21.49;50.62
46710;BME280;32442;51.514;-0.178;2022-07-29T08:44:22;101648.00;;;21.49;50.39
46710;BME280;32442;51.514;-0.178;2022-07-29T08:46:56;101655.88;;;21.52;50.35
46710;BME280;32442;51.514;-0.178;2022-07-29T08:49:23;101647.44;;;21.52;50.26
46710;BME280;32442;51.514;-0.178;2022-07-29T08:51:50;101649.59;;;21.60;50.15
46710;BME280;32442;51.514;-0.178;2022-07-29T08:54:18;101651.31;;;21.56;49.93
46710;BME280;32442;51.514;-0.178;2022-07-29T08:56:48;101646.28;;;21.53;49.88
46710;BME280;32442;51.514;-0.178;2022-07-29T08:59:15;101645.47;;;21.53;50.52
46710;BME280;32442;51.514;-0.178;2022-07-29T09:01:46;101642.66;;;21.53;50.30
46710;BME280;32442;51.514;-0.178;2022-07-29T09:04:13;101638.44;;;21.50;50.43
46710;BME280;32442;51.514;-0.178;2022-07-29T09:06:46;101639.84;;;21.53;50.15
46710;BME280;32442;51.514;-0.178;2022-07-29T09:09:14;101648.19;;;21.58;50.14
46710;BME280;32442;51.514;-0.178;2022-07-29T09:11:41;101635.59;;;21.55;49.96
46710;BME280;32442;51.514;-0.178;2022-07-29T09:14:10;101645.09;;;21.59;49.25
46710;BME280;32442;51.514;-0.178;2022-07-29T09:17:11;101640.31;;;21.60;49.21
46710;BME280;32442;51.514;-0.178;2022-07-29T09:19:35;101645.03;;;21.64;48.63
46710;BME280;32442;51.514;-0.178;2022-07-29T09:22:04;101643.91;;;21.65;48.10
46710;BME280;32442;51.514;-0.178;2022-07-29T09:27:01;101647.25;;;21.67;47.80
46710;BME280;32442;51.514;-0.178;2022-07-29T09:29:28;101632.91;;;21.69;47.69
46710;BME280;32442;51.514;-0.178;2022-07-29T09:32:01;101630.88;;;21.74;48.15
46710;BME280;32442;51.514;-0.178;2022-07-29T09:34:32;101634.25;;;21.71;47.92
46710;BME280;32442;51.514;-0.178;2022-07-29T09:36:59;101635.88;;;21.78;47.14
46710;BME280;32442;51.514;-0.178;2022-07-29T09:39:30;101638.97;;;21.76;47.38
46710;BME280;32442;51.514;-0.178;2022-07-29T09:41:58;101637.34;;;21.75;47.23
46710;BME280;32442;51.514;-0.178;2022-07-29T09:44:25;101636.72;;;21.78;47.46
46710;BME280;32442;51.514;-0.178;2022-07-29T09:46:56;101636.44;;;21.80;47.82
46710;BME280;32442;51.514;-0.178;2022-07-29T09:49:24;101629.66;;;21.81;47.37
46710;BME280;32442;51.514;-0.178;2022-07-29T09:52:03;101637.78;;;21.82;47.35
46710;BME280;32442;51.514;-0.178;2022-07-29T09:54:30;101639.69;;;21.87;47.40
46710;BME280;32442;51.514;-0.178;2022-07-29T09:57:03;101640.25;;;21.89;47.81
46710;BME280;32442;51.514;-0.178;2022-07-29T09:59:31;101630.94;;;21.93;47.44
46710;BME280;32442;51.514;-0.178;2022-07-29T10:01:58;101627.50;;;21.96;47.86
46710;BME280;32442;51.514;-0.178;2022-07-29T10:04:37;101641.53;;;22.01;47.85
46710;BME280;32442;51.514;-0.178;2022-07-29T10:07:05;101632.47;;;22.04;47.99
46710;BME280;32442;51.514;-0.178;2022-07-29T10:09:33;101633.84;;;22.07;47.67
46710;BME280;32442;51.514;-0.178;2022-07-29T10:12:10;101627.31;;;22.11;47.64
46710;BME280;32442;51.514;-0.178;2022-07-29T10:14:37;101629.50;;;22.14;47.80
46710;BME280;32442;51.514;-0.178;2022-07-29T10:17:05;101624.44;;;22.16;47.78
46710;BME280;32442;51.514;-0.178;2022-07-29T10:19:33;101624.34;;;22.22;47.55
46710;BME280;32442;51.514;-0.178;2022-07-29T10:22:00;101628.25;;;22.26;47.58
46710;BME280;32442;51.514;-0.178;2022-07-29T10:24:29;101630.72;;;22.27;47.89
46710;BME280;32442;51.514;-0.178;2022-07-29T10:26:56;101623.69;;;22.30;47.84
46710;BME280;32442;51.514;-0.178;2022-07-29T10:29:24;101628.69;;;22.33;47.43
46710;BME280;32442;51.514;-0.178;2022-07-29T10:37:07;101621.53;;;22.40;46.92
46710;BME280;32442;51.514;-0.178;2022-07-29T10:39:59;101624.88;;;22.42;47.04
46710;BME280;32442;51.514;-0.178;2022-07-29T10:42:28;101638.91;;;22.47;46.84
46710;BME280;32442;51.514;-0.178;2022-07-29T10:45:00;101627.22;;;22.54;47.06
46710;BME280;32442;51.514;-0.178;2022-07-29T10:47:29;101627.78;;;22.56;46.61
46710;BME280;32442;51.514;-0.178;2022-07-29T10:50:02;101630.03;;;22.54;47.08
46710;BME280;32442;51.514;-0.178;2022-07-29T10:58:11;101627.91;;;22.65;46.95
46710;BME280;32442;51.514;-0.178;2022-07-29T11:00:38;101621.16;;;22.66;46.84
46710;BME280;32442;51.514;-0.178;2022-07-29T11:03:05;101619.94;;;22.72;46.78
46710;BME280;32442;51.514;-0.178;2022-07-29T11:05:52;101626.94;;;22.74;47.08
46710;BME280;32442;51.514;-0.178;2022-07-29T11:08:20;101617.94;;;22.72;46.69
46710;BME280;32442;51.514;-0.178;2022-07-29T11:10:52;101622.16;;;22.75;47.27
46710;BME280;32442;51.514;-0.178;2022-07-29T11:16:07;101627.16;;;22.78;47.33
46710;BME280;32442;51.514;-0.178;2022-07-29T11:18:36;101623.84;;;22.76;47.25
46710;BME280;32442;51.514;-0.178;2022-07-29T11:21:05;101627.69;;;22.80;46.85
46710;BME280;32442;51.514;-0.178;2022-07-29T11:24:12;101628.22;;;22.82;46.91
46710;BME280;32442;51.514;-0.178;2022-07-29T11:27:10;101625.09;;;22.83;46.46
46710;BME280;32442;51.514;-0.178;2022-07-29T11:29:49;101634.91;;;22.86;46.17
46710;BME280;32442;51.514;-0.178;2022-07-29T11:32:16;101619.06;;;22.90;46.65
46710;BME280;32442;51.514;-0.178;2022-07-29T11:35:18;101626.59;;;22.94;46.42
46710;BME280;32442;51.514;-0.178;2022-07-29T11:43:57;101623.63;;;22.86;47.22
46710;BME280;32442;51.514;-0.178;2022-07-29T11:46:47;101615.19;;;22.86;46.70
46710;BME280;32442;51.514;-0.178;2022-07-29T11:49:19;101623.03;;;22.89;46.60
46710;BME280;32442;51.514;-0.178;2022-07-29T11:52:06;101619.28;;;22.93;46.78
46710;BME280;32442;51.514;-0.178;2022-07-29T11:54:37;101614.72;;;22.97;46.62
46710;BME280;32442;51.514;-0.178;2022-07-29T11:57:26;101615.75;;;23.01;47.03
46710;BME280;32442;51.514;-0.178;2022-07-29T12:00:05;101618.78;;;23.05;47.01
46710;BME280;32442;51.514;-0.178;2022-07-29T12:02:38;101612.66;;;23.03;47.17
46710;BME280;32442;51.514;-0.178;2022-07-29T12:05:06;101617.19;;;22.99;47.08
46710;BME280;32442;51.514;-0.178;2022-07-29T12:07:36;101619.22;;;22.98;47.14
46710;BME280;32442;51.514;-0.178;2022-07-29T12:10:04;101618.88;;;23.00;47.20
46710;BME280;32442;51.514;-0.178;2022-07-29T12:12:32;101616.28;;;23.03;47.14
46710;BME280;32442;51.514;-0.178;2022-07-29T12:15:13;101612.66;;;23.03;47.06
46710;BME280;32442;51.514;-0.178;2022-07-29T12:17:40;101621.09;;;23.03;47.42
46710;BME280;32442;51.514;-0.178;2022-07-29T12:20:07;101614.94;;;23.01;47.26
46710;BME280;32442;51.514;-0.178;2022-07-29T12:22:38;101614.84;;;23.06;47.04
46710;BME280;32442;51.514;-0.178;2022-07-29T12:25:09;101616.19;;;23.09;47.13
46710;BME280;32442;51.514;-0.178;2022-07-29T12:28:00;101608.34;;;23.05;47.17
46710;BME280;32442;51.514;-0.178;2022-07-29T12:30:34;101604.91;;;23.09;47.18
46710;BME280;32442;51.514;-0.178;2022-07-29T12:33:09;101604.06;;;23.08;47.49
46710;BME280;32442;51.514;-0.178;2022-07-29T12:35:36;101598.44;;;23.08;47.11
46710;BME280;32442;51.514;-0.178;2022-07-29T12:38:03;101600.94;;;23.10;47.21
46710;BME280;32442;51.514;-0.178;2022-07-29T12:40:30;101597.00;;;23.11;46.61
46710;BME280;32442;51.514;-0.178;2022-07-29T12:43:10;101597.19;;;23.14;46.58
46710;BME280;32442;51.514;-0.178;2022-07-29T12:45:38;101591.47;;;23.19;46.74
46710;BME280;32442;51.514;-0.178;2022-07-29T12:48:05;101586.38;;;23.21;46.96
46710;BME280;32442;51.514;-0.178;2022-07-29T12:50:36;101597.84;;;23.25;47.11
46710;BME280;32442;51.514;-0.178;2022-07-29T12:53:10;101584.16;;;23.18;46.98
46710;BME280;32442;51.514;-0.178;2022-07-29T12:55:38;101580.19;;;23.19;47.03
46710;BME280;32442;51.514;-0.178;2022-07-29T12:58:05;101595.75;;;23.17;47.41
46710;BME280;32442;51.514;-0.178;2022-07-29T13:00:31;101585.09;;;23.14;47.22
46710;BME280;32442;51.514;-0.178;2022-07-29T13:02:59;101589.59;;;23.15;47.45
46710;BME280;32442;51.514;-0.178;2022-07-29T13:05:43;101585.72;;;23.11;47.48
46710;BME280;32442;51.514;-0.178;2022-07-29T13:08:15;101586.66;;;23.06;47.38
46710;BME280;32442;51.514;-0.178;2022-07-29T13:10:48;101585.19;;;23.09;47.41
46710;BME280;32442;51.514;-0.178;2022-07-29T13:13:15;101593.97;;;23.07;47.77
46710;BME280;32442;51.514;-0.178;2022-07-29T13:15:43;101588.53;;;23.11;47.28
46710;BME280;32442;51.514;-0.178;2022-07-29T13:18:29;101579.25;;;23.10;47.47
46710;BME280;32442;51.514;-0.178;2022-07-29T13:20:56;101578.59;;;23.13;46.81
46710;BME280;32442;51.514;-0.178;2022-07-29T13:23:23;101578.59;;;23.13;46.62
46710;BME280;32442;51.514;-0.178;2022-07-29T13:25:50;101583.94;;;23.15;47.07
46710;BME280;32442;51.514;-0.178;2022-07-29T13:28:19;101582.47;;;23.17;46.84
46710;BME280;32442;51.514;-0.178;2022-07-29T13:30:47;101578.00;;;23.16;46.61
46710;BME280;32442;51.514;-0.178;2022-07-29T13:33:14;101571.19;;;23.17;46.67
46710;BME280;32442;51.514;-0.178;2022-07-29T13:35:41;101572.88;;;23.18;46.86
46710;BME280;32442;51.514;-0.178;2022-07-29T13:38:08;101568.38;;;23.17;46.69
46710;BME280;32442;51.514;-0.178;2022-07-29T13:40:35;101576.75;;;23.22;46.55